Thame, United Kingdom
Current Conditions -  °F | °C
As of 4:50 PM on Friday 19 Dec 2014 (Local Time) from EGUB Reporting Station
Few Clouds Few Clouds  
Wind Chill: 39°   Ceiling: Unl
Heat Index: 45°   Visibility: 6mi
Dew Point: 36°   Wind: 12mph
Humidity: 71%   Direction: 250°WSW
Pressure: 30.09"   Gusts: NA
Location:  51.75°N, 0.98°W
Report Text: EGUB 191650Z 25010KT 9999 FEW042 07/02 Q1019 BLU NOSIG
Loading
Personal Weather Stations






























Interactive Weather Map New forecast layout! Learn more

10-Day Weather Forecast

Advertisements
Track Severe Weather on mobile